createdAt,value
2022-08-07T00:00:41.238Z,54.80
2022-08-07T00:03:09.766Z,54.80
2022-08-07T00:05:43.661Z,54.90
2022-08-07T00:08:16.354Z,54.90
2022-08-07T00:10:48.216Z,55.00
2022-08-07T00:13:26.819Z,54.90
2022-08-07T00:15:55.289Z,55.20
2022-08-07T00:18:25.021Z,55.30
2022-08-07T00:20:53.450Z,55.50
2022-08-07T00:23:22.178Z,55.50
2022-08-07T00:25:59.275Z,55.50
2022-08-07T00:28:33.940Z,55.50
2022-08-07T00:31:12.423Z,55.60
2022-08-07T00:33:47.809Z,55.70
2022-08-07T00:36:19.142Z,55.80
2022-08-07T00:38:47.210Z,56.00
2022-08-07T00:41:29.056Z,56.10
2022-08-07T00:44:02.958Z,56.40
2022-08-07T00:46:33.197Z,56.30
2022-08-07T00:49:03.240Z,56.50
2022-08-07T00:51:57.370Z,56.50
2022-08-07T00:54:26.080Z,56.50
2022-08-07T00:56:55.471Z,56.50
2022-08-07T00:59:32.679Z,56.40
2022-08-07T01:02:08.988Z,56.40
2022-08-07T01:04:43.098Z,56.50
2022-08-07T01:07:11.919Z,56.50
2022-08-07T01:10:06.991Z,56.50
2022-08-07T01:12:31.123Z,56.50
2022-08-07T01:15:01.266Z,56.60
2022-08-07T01:17:36.807Z,57.60
2022-08-07T01:20:16.519Z,57.20
2022-08-07T01:23:00.658Z,57.20
2022-08-07T01:25:55.206Z,57.10
2022-08-07T01:28:24.667Z,57.20
2022-08-07T01:30:53.886Z,57.20
2022-08-07T01:33:22.479Z,57.80
2022-08-07T01:35:54.443Z,57.10
2022-08-07T01:38:38.378Z,57.10
2022-08-07T01:41:08.037Z,57.30
2022-08-07T01:43:39.036Z,57.60
2022-08-07T01:46:08.293Z,57.60
2022-08-07T01:48:42.243Z,57.40
2022-08-07T01:51:58.812Z,57.30
2022-08-07T01:54:19.244Z,57.20
2022-08-07T01:57:01.211Z,57.00
2022-08-07T01:59:35.281Z,56.90
2022-08-07T02:02:06.192Z,57.00
2022-08-07T02:04:39.508Z,57.10
2022-08-07T02:07:25.447Z,56.90
2022-08-07T02:10:07.985Z,57.10
2022-08-07T02:12:43.480Z,57.30
2022-08-07T02:15:15.417Z,57.70
2022-08-07T02:17:49.596Z,57.80
2022-08-07T02:20:23.451Z,58.00
2022-08-07T02:22:55.077Z,57.80
2022-08-07T02:25:47.190Z,57.70
2022-08-07T02:28:24.476Z,57.80
2022-08-07T02:31:18.985Z,57.80
2022-08-07T02:34:02.818Z,58.00
2022-08-07T02:36:33.717Z,58.20
2022-08-07T02:39:16.066Z,58.40
2022-08-07T02:41:54.199Z,58.20
2022-08-07T02:44:26.909Z,58.40
2022-08-07T02:46:56.241Z,58.60
2022-08-07T02:49:28.633Z,58.80
2022-08-07T02:51:58.988Z,58.80
2022-08-07T02:54:28.901Z,58.90
2022-08-07T02:57:01.477Z,59.00
2022-08-07T02:59:31.015Z,59.40
2022-08-07T03:02:02.187Z,59.10
2022-08-07T03:04:31.116Z,59.20
2022-08-07T03:07:03.402Z,59.10
2022-08-07T03:09:44.720Z,59.20
2022-08-07T03:12:22.070Z,59.20
2022-08-07T03:14:57.654Z,59.10
2022-08-07T03:17:31.044Z,59.20
2022-08-07T03:20:04.702Z,59.20
2022-08-07T03:22:35.252Z,59.30
2022-08-07T03:25:03.361Z,59.50
2022-08-07T03:27:42.175Z,59.60
2022-08-07T03:30:20.707Z,59.60
2022-08-07T03:32:58.386Z,59.70
2022-08-07T03:35:43.774Z,59.90
2022-08-07T03:38:17.265Z,59.80
2022-08-07T03:40:57.052Z,59.80
2022-08-07T03:43:32.229Z,59.80
2022-08-07T03:46:01.895Z,59.90
2022-08-07T03:48:31.251Z,59.90
2022-08-07T03:50:59.822Z,60.00
2022-08-07T03:54:01.916Z,60.00
2022-08-07T03:56:33.060Z,60.00
2022-08-07T03:59:12.803Z,60.00
2022-08-07T04:01:45.873Z,60.20
2022-08-07T04:04:17.202Z,60.30
2022-08-07T04:06:45.805Z,60.50
2022-08-07T04:09:15.733Z,60.50
2022-08-07T04:12:24.267Z,60.60
2022-08-07T04:14:38.441Z,60.70
2022-08-07T04:17:20.108Z,60.70
2022-08-07T04:19:51.944Z,60.80
2022-08-07T04:22:20.876Z,61.00
2022-08-07T04:24:51.401Z,61.20
2022-08-07T04:27:25.622Z,61.20
2022-08-07T04:30:02.261Z,61.40
2022-08-07T04:32:34.622Z,61.20
2022-08-07T04:35:03.891Z,60.90
2022-08-07T04:38:01.228Z,60.60
2022-08-07T04:40:20.778Z,60.40
2022-08-07T04:42:51.628Z,60.30
2022-08-07T04:45:57.407Z,60.10
2022-08-07T04:48:11.504Z,60.10
2022-08-07T04:50:44.924Z,60.00
2022-08-07T04:53:40.171Z,59.90
2022-08-07T04:58:09.385Z,59.80
2022-08-07T04:59:18.150Z,59.80
2022-08-07T05:01:59.312Z,59.80
2022-08-07T05:04:47.147Z,59.70
2022-08-07T05:07:21.090Z,60.30
2022-08-07T05:09:57.122Z,59.70
2022-08-07T05:12:30.489Z,60.20
2022-08-07T05:15:04.951Z,59.60
2022-08-07T05:17:52.390Z,59.30
2022-08-07T05:20:26.898Z,59.20
2022-08-07T05:23:00.838Z,59.00
2022-08-07T05:25:54.368Z,58.70
2022-08-07T05:28:22.743Z,58.50
2022-08-07T05:30:52.668Z,58.20
2022-08-07T05:33:22.384Z,57.80
2022-08-07T05:35:50.665Z,57.80
2022-08-07T05:39:00.980Z,57.60
2022-08-07T05:41:14.300Z,57.70
2022-08-07T05:44:07.791Z,57.50
2022-08-07T05:46:32.207Z,57.40
2022-08-07T05:49:01.421Z,57.30
2022-08-07T05:51:40.647Z,57.00
2022-08-07T05:54:29.866Z,56.70
2022-08-07T05:56:57.583Z,56.30
2022-08-07T05:59:28.003Z,55.90
2022-08-07T06:01:58.174Z,55.80
2022-08-07T06:04:30.078Z,55.60
2022-08-07T06:07:03.387Z,55.00
2022-08-07T06:10:04.547Z,54.90
2022-08-07T06:12:21.069Z,54.60
2022-08-07T06:15:05.300Z,54.30
2022-08-07T06:17:38.201Z,54.30
2022-08-07T06:20:31.684Z,54.00
2022-08-07T06:23:02.291Z,53.30
2022-08-07T06:25:54.666Z,53.10
2022-08-07T06:28:27.312Z,52.90
2022-08-07T06:30:58.222Z,52.40
2022-08-07T06:33:26.771Z,52.10
2022-08-07T06:36:13.026Z,52.10
2022-08-07T06:38:51.255Z,52.20
2022-08-07T06:42:00.622Z,52.30
2022-08-07T06:44:17.909Z,51.00
2022-08-07T06:46:53.468Z,50.90
2022-08-07T06:49:34.810Z,50.50
2022-08-07T06:52:31.256Z,50.20
2022-08-07T06:55:34.299Z,49.20
2022-08-07T06:57:57.336Z,49.70
2022-08-07T07:00:28.235Z,49.50
2022-08-07T07:02:58.200Z,49.60
2022-08-07T07:06:03.376Z,49.90
2022-08-07T07:08:25.664Z,49.10
2022-08-07T07:10:56.937Z,48.60
2022-08-07T07:13:56.602Z,48.20
2022-08-07T07:16:19.632Z,47.50
2022-08-07T07:18:50.690Z,47.30
2022-08-07T07:21:20.240Z,47.20
2022-08-07T07:24:10.936Z,46.70
2022-08-07T07:26:38.452Z,46.00
2022-08-07T07:29:38.425Z,46.40
2022-08-07T07:32:02.082Z,46.40
2022-08-07T07:34:32.111Z,45.80
2022-08-07T07:37:14.489Z,45.60
2022-08-07T07:39:54.307Z,45.60
2022-08-07T07:42:29.979Z,45.20
2022-08-07T07:45:08.526Z,44.90
2022-08-07T07:47:52.566Z,44.00
2022-08-07T07:50:33.757Z,44.00
2022-08-07T07:53:20.483Z,43.80
2022-08-07T07:55:54.710Z,42.50
2022-08-07T07:58:30.724Z,42.60
2022-08-07T08:02:03.564Z,42.40
2022-08-07T08:04:06.070Z,41.50
2022-08-07T08:06:39.579Z,41.40
2022-08-07T08:09:08.393Z,41.40
2022-08-07T08:11:59.165Z,41.30
2022-08-07T08:14:27.536Z,40.80
2022-08-07T08:17:55.534Z,40.80
2022-08-07T08:20:17.550Z,40.70
2022-08-07T08:26:18.131Z,39.50
2022-08-07T08:28:49.203Z,38.40
2022-08-07T08:31:22.963Z,38.70
2022-08-07T08:34:42.499Z,38.60
2022-08-07T08:38:00.550Z,38.10
2022-08-07T08:40:28.772Z,37.70
2022-08-07T08:46:05.124Z,37.40
2022-08-07T08:48:38.536Z,36.90
2022-08-07T08:51:14.707Z,36.60
2022-08-07T08:53:57.926Z,35.70
2022-08-07T08:56:29.905Z,35.30
2022-08-07T08:59:06.417Z,35.60
2022-08-07T09:01:49.338Z,35.60
2022-08-07T09:04:45.202Z,35.40
2022-08-07T09:14:09.822Z,33.50
2022-08-07T09:27:11.893Z,30.50
2022-08-07T09:30:05.420Z,30.10
2022-08-07T09:32:52.941Z,30.40
2022-08-07T09:36:01.061Z,31.10
2022-08-07T09:38:21.095Z,31.00
2022-08-07T09:41:06.389Z,29.60
2022-08-07T09:44:06.115Z,29.60
2022-08-07T09:47:50.136Z,29.80
2022-08-07T09:50:01.591Z,29.30
2022-08-07T09:52:33.641Z,29.40
2022-08-07T09:55:17.442Z,29.40
2022-08-07T09:58:07.842Z,28.20
2022-08-07T10:00:44.911Z,28.50
2022-08-07T10:04:06.453Z,28.00
2022-08-07T10:06:24.504Z,27.80
2022-08-07T10:09:10.332Z,28.40
2022-08-07T10:12:02.504Z,28.60
2022-08-07T10:14:47.518Z,28.40
2022-08-07T10:18:01.159Z,28.20
2022-08-07T10:20:30.584Z,28.30
2022-08-07T10:24:04.906Z,28.30
2022-08-07T10:26:17.665Z,28.50
2022-08-07T10:29:10.429Z,28.30
2022-08-07T10:32:00.786Z,27.90
2022-08-07T10:34:37.417Z,28.10
2022-08-07T10:38:21.676Z,28.00
2022-08-07T10:41:07.487Z,27.70
2022-08-07T10:44:07.678Z,27.80
2022-08-07T10:46:48.063Z,27.70
2022-08-07T10:53:21.672Z,27.30
2022-08-07T10:55:53.735Z,27.50
2022-08-07T10:58:40.307Z,27.70
2022-08-07T11:01:35.796Z,27.80
2022-08-07T11:04:32.115Z,27.40
2022-08-07T11:07:15.171Z,27.10
2022-08-07T11:10:09.131Z,27.50
2022-08-07T11:12:43.537Z,27.60
2022-08-07T11:15:17.263Z,27.30
2022-08-07T11:17:49.641Z,27.30
2022-08-07T11:20:20.370Z,27.00
2022-08-07T11:22:54.843Z,26.50
2022-08-07T11:25:24.471Z,26.50
2022-08-07T11:28:01.820Z,26.90
2022-08-07T11:30:41.563Z,26.50
2022-08-07T11:33:14.188Z,26.50
2022-08-07T11:35:59.186Z,27.00
2022-08-07T11:38:38.138Z,26.70
2022-08-07T11:41:22.396Z,26.10
2022-08-07T11:44:12.176Z,26.30
2022-08-07T11:46:49.446Z,26.60
2022-08-07T11:49:51.156Z,26.60
2022-08-07T11:52:29.496Z,26.50
2022-08-07T11:55:12.914Z,26.80
2022-08-07T11:57:59.321Z,26.50
2022-08-07T12:00:32.478Z,26.40
2022-08-07T12:03:42.117Z,26.40
2022-08-07T12:06:37.739Z,26.40
2022-08-07T12:09:07.475Z,26.50
2022-08-07T12:12:10.395Z,26.60
2022-08-07T12:14:38.281Z,26.40
2022-08-07T12:17:08.943Z,25.60
2022-08-07T12:20:02.652Z,25.60
2022-08-07T12:22:56.392Z,25.70
2022-08-07T12:26:21.636Z,26.20
2022-08-07T12:28:49.619Z,26.20
2022-08-07T12:31:25.133Z,26.10
2022-08-07T12:34:13.961Z,25.60
2022-08-07T12:36:49.541Z,25.70
2022-08-07T12:39:42.332Z,25.90
2022-08-07T12:42:14.141Z,25.60
2022-08-07T12:44:45.729Z,25.00
2022-08-07T12:47:21.385Z,25.10
2022-08-07T12:50:34.027Z,25.60
2022-08-07T12:52:58.686Z,25.70
2022-08-07T12:55:41.478Z,25.70
2022-08-07T12:58:21.501Z,25.50
2022-08-07T13:01:12.691Z,25.20
2022-08-07T13:03:56.336Z,25.10
2022-08-07T13:07:00.695Z,25.40
2022-08-07T13:10:20.541Z,25.50
2022-08-07T13:12:23.721Z,25.50
2022-08-07T13:15:00.164Z,25.30
2022-08-07T13:17:40.638Z,25.40
2022-08-07T13:20:13.175Z,25.70
2022-08-07T13:22:44.553Z,25.60
2022-08-07T13:25:29.786Z,25.10
2022-08-07T13:28:12.433Z,25.00
2022-08-07T13:30:52.176Z,24.90
2022-08-07T13:34:29.822Z,24.90
2022-08-07T13:36:17.780Z,25.30
2022-08-07T13:38:54.458Z,24.70
2022-08-07T13:41:30.218Z,25.00
2022-08-07T13:44:01.661Z,25.00
2022-08-07T13:46:33.470Z,24.80
2022-08-07T13:49:08.892Z,24.90
2022-08-07T13:52:05.154Z,25.10
2022-08-07T13:54:49.367Z,25.20
2022-08-07T13:57:23.963Z,24.50
2022-08-07T13:59:55.638Z,24.90
2022-08-07T14:02:33.474Z,24.80
2022-08-07T14:05:09.314Z,24.90
2022-08-07T14:08:00.085Z,25.20
2022-08-07T14:10:33.835Z,25.00
2022-08-07T14:13:11.449Z,24.80
2022-08-07T14:15:41.390Z,25.00
2022-08-07T14:18:29.100Z,25.10
2022-08-07T14:21:11.752Z,25.00
2022-08-07T14:24:00.241Z,24.80
2022-08-07T14:26:32.480Z,24.30
2022-08-07T14:29:08.527Z,24.00
2022-08-07T14:31:56.548Z,24.50
2022-08-07T14:34:30.210Z,24.80
2022-08-07T14:37:02.940Z,24.50
2022-08-07T14:40:17.071Z,24.70
2022-08-07T14:42:31.478Z,24.50
2022-08-07T14:45:22.266Z,24.10
2022-08-07T14:47:58.607Z,24.50
2022-08-07T14:50:31.652Z,24.60
2022-08-07T14:53:09.875Z,24.50
2022-08-07T14:55:55.427Z,24.20
2022-08-07T14:58:26.103Z,24.40
2022-08-07T15:00:55.423Z,24.60
2022-08-07T15:03:51.579Z,24.60
2022-08-07T15:06:22.493Z,24.70
2022-08-07T15:08:54.961Z,24.70
2022-08-07T15:11:53.758Z,24.70
2022-08-07T15:14:15.656Z,24.40
2022-08-07T15:16:54.920Z,23.90
2022-08-07T15:20:16.100Z,24.20
2022-08-07T15:28:32.301Z,24.70
2022-08-07T15:33:36.365Z,25.40
2022-08-07T15:36:07.548Z,24.70
2022-08-07T15:42:44.482Z,24.80
2022-08-07T15:44:20.611Z,24.70
2022-08-07T15:46:52.884Z,25.00
2022-08-07T15:49:25.237Z,25.80
2022-08-07T15:54:34.173Z,25.50
2022-08-07T15:57:03.331Z,25.60
2022-08-07T15:59:38.872Z,25.50
2022-08-07T16:02:08.838Z,25.30
2022-08-07T16:04:38.945Z,25.30
2022-08-07T16:08:29.213Z,25.30
2022-08-07T16:10:03.896Z,25.20
2022-08-07T16:12:34.238Z,25.00
2022-08-07T16:15:56.397Z,25.10
2022-08-07T16:18:11.494Z,25.00
2022-08-07T16:21:57.064Z,24.90
2022-08-07T16:23:58.796Z,24.50
2022-08-07T16:26:39.843Z,24.50
2022-08-07T16:30:09.892Z,24.50
2022-08-07T16:32:34.963Z,24.20
2022-08-07T16:35:52.424Z,24.40
2022-08-07T16:38:09.567Z,24.80
2022-08-07T16:40:57.090Z,25.00
2022-08-07T16:44:02.356Z,25.10
2022-08-07T16:47:08.986Z,25.30
2022-08-07T16:50:20.353Z,25.20
2022-08-07T16:52:55.819Z,24.90
2022-08-07T16:55:47.079Z,25.00
2022-08-07T17:02:03.230Z,25.40
2022-08-07T17:04:57.515Z,25.80
2022-08-07T17:07:51.482Z,25.90
2022-08-07T17:10:32.689Z,26.10
2022-08-07T17:13:05.610Z,26.20
2022-08-07T17:15:44.111Z,26.30
2022-08-07T17:18:32.815Z,26.40
2022-08-07T17:21:02.990Z,26.40
2022-08-07T17:23:54.995Z,26.50
2022-08-07T17:26:30.493Z,26.70
2022-08-07T17:29:07.567Z,26.70
2022-08-07T17:31:44.289Z,26.90
2022-08-07T17:34:57.251Z,26.90
2022-08-07T17:38:05.692Z,27.10
2022-08-07T17:40:20.457Z,27.10
2022-08-07T17:43:03.372Z,27.10
2022-08-07T17:45:44.819Z,27.20
2022-08-07T17:48:30.465Z,27.10
2022-08-07T17:51:05.923Z,27.30
2022-08-07T17:54:01.700Z,27.40
2022-08-07T17:56:32.374Z,27.60
2022-08-07T17:59:09.118Z,27.50
2022-08-07T18:01:44.296Z,27.60
2022-08-07T18:04:18.667Z,27.60
2022-08-07T18:07:19.208Z,27.70
2022-08-07T18:10:04.458Z,27.80
2022-08-07T18:12:36.816Z,27.80
2022-08-07T18:15:09.714Z,27.90
2022-08-07T18:18:33.172Z,28.00
2022-08-07T18:21:10.405Z,28.10
2022-08-07T18:23:43.664Z,28.20
2022-08-07T18:26:16.250Z,28.40
2022-08-07T18:28:57.798Z,28.50
2022-08-07T18:31:40.613Z,28.70
2022-08-07T18:34:40.840Z,28.90
2022-08-07T18:38:59.263Z,29.00
2022-08-07T18:40:43.959Z,29.10
2022-08-07T18:43:12.052Z,29.30
2022-08-07T18:46:21.683Z,29.40
2022-08-07T18:50:30.572Z,29.60
2022-08-07T18:52:25.439Z,29.50
2022-08-07T18:54:27.713Z,29.80
2022-08-07T18:57:30.206Z,30.00
2022-08-07T19:00:04.354Z,30.20
2022-08-07T19:02:55.614Z,30.40
2022-08-07T19:05:27.729Z,30.70
2022-08-07T19:08:18.688Z,30.90
2022-08-07T19:10:51.955Z,31.20
2022-08-07T19:13:27.556Z,31.40
2022-08-07T19:16:05.702Z,31.70
2022-08-07T19:18:49.446Z,32.10
2022-08-07T19:21:51.385Z,32.40
2022-08-07T19:24:30.165Z,32.70
2022-08-07T19:28:56.941Z,33.10
2022-08-07T19:31:00.909Z,33.40
2022-08-07T19:32:45.654Z,33.60
2022-08-07T19:35:17.792Z,33.90
2022-08-07T19:37:56.533Z,34.10
2022-08-07T19:40:31.091Z,34.30
2022-08-07T19:43:02.595Z,34.50
2022-08-07T19:46:05.104Z,34.70
2022-08-07T19:48:26.911Z,34.90
2022-08-07T19:50:54.900Z,35.10
2022-08-07T19:54:33.549Z,35.30
2022-08-07T19:57:51.360Z,35.50
2022-08-07T19:59:08.595Z,35.70
2022-08-07T20:01:56.946Z,35.90
2022-08-07T20:04:30.962Z,36.30
2022-08-07T20:07:00.775Z,36.60
2022-08-07T20:10:33.503Z,36.90
2022-08-07T20:12:34.454Z,37.10
2022-08-07T20:15:15.517Z,37.60
2022-08-07T20:17:56.350Z,38.10
2022-08-07T20:20:32.444Z,38.40
2022-08-07T20:23:10.799Z,38.90
2022-08-07T20:25:54.318Z,39.20
2022-08-07T20:28:29.193Z,39.50
2022-08-07T20:30:58.376Z,39.70
2022-08-07T20:33:36.596Z,40.00
2022-08-07T20:36:07.636Z,40.20
2022-08-07T20:38:36.229Z,40.50
2022-08-07T20:41:25.818Z,40.70
2022-08-07T20:43:57.442Z,41.00
2022-08-07T20:46:32.237Z,41.30
2022-08-07T20:49:58.479Z,41.50
2022-08-07T20:51:52.733Z,41.70
2022-08-07T20:54:29.635Z,41.80
2022-08-07T20:57:02.483Z,42.10
2022-08-07T21:00:07.360Z,42.20
2022-08-07T21:02:39.979Z,42.30
2022-08-07T21:05:16.638Z,42.60
2022-08-07T21:07:49.563Z,42.80
2022-08-07T21:10:29.443Z,43.00
2022-08-07T21:13:00.541Z,43.00
2022-08-07T21:15:48.044Z,43.20
2022-08-07T21:18:20.537Z,43.30
2022-08-07T21:20:56.669Z,43.50
2022-08-07T21:23:32.963Z,43.80
2022-08-07T21:26:04.961Z,44.00
2022-08-07T21:28:49.115Z,44.30
2022-08-07T21:31:49.803Z,44.50
2022-08-07T21:34:18.184Z,44.70
2022-08-07T21:36:51.491Z,45.00
2022-08-07T21:39:47.275Z,45.20
2022-08-07T21:42:41.796Z,45.30
2022-08-07T21:46:09.069Z,45.30
2022-08-07T21:48:02.389Z,45.40
2022-08-07T21:50:35.135Z,45.60
2022-08-07T21:53:08.555Z,45.70
2022-08-07T21:55:44.345Z,45.80
2022-08-07T21:58:30.250Z,46.00
2022-08-07T22:01:02.810Z,46.10
2022-08-07T22:03:36.302Z,46.30
2022-08-07T22:06:30.408Z,46.50
2022-08-07T22:09:00.789Z,46.60
2022-08-07T22:12:05.831Z,46.70
2022-08-07T22:14:36.319Z,46.80
2022-08-07T22:17:05.096Z,46.80
2022-08-07T22:19:37.121Z,46.90
2022-08-07T22:22:10.879Z,47.20
2022-08-07T22:24:53.531Z,47.20
2022-08-07T22:28:08.391Z,47.30
2022-08-07T22:30:16.019Z,47.40
2022-08-07T22:32:56.400Z,47.50
2022-08-07T22:35:24.482Z,47.70
2022-08-07T22:38:11.240Z,47.70
2022-08-07T22:40:45.959Z,48.50
2022-08-07T22:43:15.387Z,48.00
2022-08-07T22:46:40.990Z,48.10
2022-08-07T22:49:01.323Z,48.30
2022-08-07T22:51:49.357Z,48.40
2022-08-07T22:54:31.588Z,48.60
2022-08-07T22:57:06.792Z,48.70
2022-08-07T22:59:51.107Z,48.80
2022-08-07T23:02:34.905Z,49.00
2022-08-07T23:06:09.905Z,49.20
2022-08-07T23:07:58.043Z,49.30
2022-08-07T23:10:41.864Z,49.50
2022-08-07T23:13:29.555Z,49.60
2022-08-07T23:16:48.467Z,49.70
2022-08-07T23:19:47.998Z,49.70
2022-08-07T23:22:27.549Z,50.00
2022-08-07T23:25:04.362Z,50.10
2022-08-07T23:28:21.848Z,50.20
2022-08-07T23:31:06.789Z,50.20
2022-08-07T23:34:21.846Z,50.10
2022-08-07T23:36:49.153Z,50.10
2022-08-07T23:39:41.388Z,50.30
2022-08-07T23:42:15.662Z,50.60
2022-08-07T23:45:03.513Z,50.70
2022-08-07T23:47:53.161Z,50.80
2022-08-07T23:50:30.359Z,50.80
2022-08-07T23:53:08.663Z,50.90
2022-08-07T23:55:51.677Z,51.10
2022-08-07T23:58:25.266Z,51.20
